createdAt,value
2023-09-13T00:00:01.690Z,739.65
2023-09-13T00:17:45.312Z,377.98
2023-09-13T00:20:14.096Z,317.33
2023-09-13T00:22:43.207Z,273.75
2023-09-13T00:25:12.007Z,216.68
2023-09-13T00:27:40.723Z,193.15
2023-09-13T00:30:12.077Z,128.50
2023-09-13T00:32:40.819Z,85.72
2023-09-13T00:35:11.427Z,64.20
2023-09-13T00:37:40.588Z,51.33
2023-09-13T00:40:11.938Z,45.50
2023-09-13T00:42:40.879Z,41.38
2023-09-13T00:45:10.524Z,41.47
2023-09-13T00:47:43.310Z,39.42
2023-09-13T00:50:17.198Z,40.88
2023-09-13T00:52:47.402Z,45.17
2023-09-13T00:55:18.374Z,42.55
2023-09-13T00:57:47.676Z,41.60
2023-09-13T01:00:19.044Z,47.58
2023-09-13T01:02:47.891Z,47.15
2023-09-13T01:05:18.325Z,46.92
2023-09-13T01:07:48.614Z,48.53
2023-09-13T01:10:20.930Z,52.10
2023-09-13T01:12:49.685Z,62.63
2023-09-13T01:15:18.557Z,62.47
2023-09-13T01:17:55.117Z,57.67
2023-09-13T01:20:39.773Z,58.30
2023-09-13T02:22:27.506Z,155.10
2023-09-13T02:24:57.026Z,128.85
2023-09-13T02:27:26.412Z,128.68
2023-09-13T02:30:01.243Z,132.23
2023-09-13T02:32:36.229Z,137.13
2023-09-13T02:35:08.198Z,132.48
2023-09-13T02:37:41.644Z,146.35
2023-09-13T02:40:20.325Z,131.27
2023-09-13T02:42:55.936Z,142.32
2023-09-13T02:45:26.247Z,143.73
2023-09-13T02:48:13.477Z,140.68
2023-09-13T02:50:49.328Z,146.27
2023-09-13T02:53:36.811Z,144.52
2023-09-13T02:56:07.222Z,141.75
2023-09-13T02:58:38.921Z,144.75
2023-09-13T03:01:22.630Z,145.75
2023-09-13T03:03:53.613Z,148.23
2023-09-13T03:06:25.431Z,169.65
2023-09-13T03:09:04.377Z,152.40
2023-09-13T03:11:39.473Z,186.07
2023-09-13T03:14:10.778Z,159.85
2023-09-13T03:16:50.654Z,161.65
2023-09-13T03:19:25.131Z,143.07
2023-09-13T03:21:58.460Z,159.52
2023-09-13T03:24:32.230Z,194.05
2023-09-13T03:27:04.107Z,169.75
2023-09-13T03:29:34.675Z,163.07
2023-09-13T03:32:16.893Z,161.15
2023-09-13T03:34:53.856Z,244.60
2023-09-13T03:37:27.673Z,177.90
2023-09-13T03:40:17.377Z,191.02
2023-09-13T03:43:12.076Z,163.38
2023-09-13T03:45:41.187Z,179.63
2023-09-13T03:48:10.451Z,184.88
2023-09-13T03:50:44.329Z,265.02
2023-09-13T03:53:13.870Z,269.17
2023-09-13T03:55:44.503Z,218.18
2023-09-13T03:58:13.713Z,239.70
2023-09-13T04:00:42.557Z,305.80
2023-09-13T04:03:11.324Z,247.82
2023-09-13T04:05:40.320Z,219.20
2023-09-13T04:08:08.885Z,210.77
2023-09-13T04:10:37.395Z,169.73
2023-09-13T04:13:09.747Z,193.65
2023-09-13T04:15:38.615Z,193.18
2023-09-13T04:18:09.511Z,184.00
2023-09-13T04:20:40.197Z,195.45
2023-09-13T04:23:08.999Z,231.85
2023-09-13T04:47:13.250Z,184.00
2023-09-13T04:49:52.079Z,209.23
2023-09-13T04:52:30.514Z,226.25
2023-09-13T04:55:00.681Z,229.73
2023-09-13T04:57:37.593Z,282.17
2023-09-13T05:13:32.141Z,380.58
2023-09-13T05:16:04.226Z,399.40
2023-09-13T05:18:37.061Z,393.85
2023-09-13T05:21:14.559Z,436.23
2023-09-13T05:23:53.853Z,374.02
2023-09-13T05:26:34.417Z,358.73
2023-09-13T05:29:25.640Z,447.13
2023-09-13T05:32:09.155Z,399.50
2023-09-13T05:35:04.277Z,421.53
2023-09-13T05:40:40.890Z,435.58
2023-09-13T05:46:12.576Z,441.92
2023-09-13T05:49:19.843Z,464.10
2023-09-13T05:51:53.423Z,564.65
2023-09-13T05:54:33.410Z,618.28
2023-09-13T05:57:16.196Z,532.28
2023-09-13T05:59:58.955Z,575.40
2023-09-13T06:13:22.733Z,611.70
2023-09-13T06:15:51.281Z,556.00
2023-09-13T06:18:19.730Z,560.22
2023-09-13T06:20:48.639Z,616.28
2023-09-13T06:23:35.441Z,583.20
2023-09-13T06:26:04.272Z,579.40
2023-09-13T06:28:34.374Z,558.13
2023-09-13T06:31:04.942Z,554.83
2023-09-13T06:33:42.140Z,569.95
2023-09-13T06:36:11.866Z,574.90
2023-09-13T06:38:41.054Z,565.72
2023-09-13T06:41:10.606Z,568.78
2023-09-13T06:44:01.218Z,532.90
2023-09-13T06:46:31.387Z,573.35
2023-09-13T06:49:02.359Z,569.75
2023-09-13T06:54:05.826Z,616.92
2023-09-13T06:56:37.578Z,704.28
2023-09-13T07:02:05.999Z,773.45
2023-09-13T07:04:35.909Z,783.83
2023-09-13T07:07:08.963Z,767.42
2023-09-13T07:09:37.774Z,785.95
2023-09-13T07:12:07.216Z,798.35
2023-09-13T07:14:37.463Z,789.15
2023-09-13T07:17:06.576Z,768.03
2023-09-13T07:19:35.380Z,758.63
2023-09-13T07:22:04.619Z,806.10
2023-09-13T07:24:33.153Z,752.80
2023-09-13T07:27:02.264Z,779.03
2023-09-13T07:29:30.735Z,745.88
2023-09-13T07:32:00.603Z,689.55
2023-09-13T07:34:32.294Z,732.38
2023-09-13T07:37:01.135Z,660.15
2023-09-13T07:39:29.772Z,680.05
2023-09-13T07:41:58.573Z,752.90
2023-09-13T07:44:27.050Z,807.95
2023-09-13T07:46:55.620Z,731.10
2023-09-13T07:49:26.699Z,732.88
2023-09-13T07:51:55.347Z,741.15
2023-09-13T07:54:23.830Z,755.00
2023-09-13T07:56:52.406Z,743.13
2023-09-13T07:59:21.840Z,785.20
2023-09-13T08:01:51.534Z,831.72
2023-09-13T08:04:20.876Z,773.08
2023-09-13T08:06:50.915Z,758.70
2023-09-13T08:09:19.621Z,746.75
2023-09-13T08:11:48.532Z,759.95
2023-09-13T08:14:17.245Z,777.55
2023-09-13T08:16:45.907Z,783.00
2023-09-13T08:19:14.709Z,822.85
2023-09-13T08:21:43.633Z,769.17
2023-09-13T08:24:13.701Z,798.22
2023-09-13T08:26:42.277Z,804.88
2023-09-13T08:29:10.915Z,830.92
2023-09-13T08:31:39.667Z,821.75
2023-09-13T08:34:08.536Z,825.58
2023-09-13T08:36:37.101Z,866.78
2023-09-13T08:39:06.418Z,853.10
2023-09-13T08:41:36.453Z,819.90
2023-09-13T08:44:06.558Z,789.63
2023-09-13T08:46:35.291Z,769.88
2023-09-13T08:49:06.351Z,781.83
2023-09-13T08:51:36.462Z,751.08
2023-09-13T08:54:05.593Z,764.58
2023-09-13T08:56:35.579Z,757.05
2023-09-13T08:59:04.404Z,763.13
2023-09-13T09:01:34.089Z,747.45
2023-09-13T09:04:02.738Z,693.20
2023-09-13T09:06:32.498Z,720.55
2023-09-13T09:09:01.422Z,652.90
2023-09-13T09:11:30.376Z,606.20
2023-09-13T09:14:00.758Z,668.90
2023-09-13T09:16:29.775Z,716.67
2023-09-13T09:19:00.562Z,664.25
2023-09-13T09:21:29.589Z,617.72
2023-09-13T09:23:59.151Z,563.15
2023-09-13T09:26:27.995Z,738.55
2023-09-13T09:28:56.769Z,699.15
2023-09-13T09:31:28.201Z,753.20
2023-09-13T09:34:04.931Z,761.78
2023-09-13T09:36:35.903Z,750.22
2023-09-13T09:39:05.357Z,750.47
2023-09-13T09:41:34.501Z,850.00
2023-09-13T09:44:03.297Z,762.65
2023-09-13T09:46:33.922Z,750.63
2023-09-13T09:49:03.813Z,778.45
2023-09-13T09:51:34.037Z,750.13
2023-09-13T09:54:03.120Z,763.15
2023-09-13T09:56:32.469Z,779.67
2023-09-13T09:59:01.531Z,782.60
2023-09-13T10:01:32.464Z,747.03
2023-09-13T10:04:11.905Z,752.20
2023-09-13T10:06:45.239Z,754.22
2023-09-13T10:09:14.241Z,771.87
2023-09-13T10:11:42.815Z,755.58
2023-09-13T10:14:11.390Z,756.60
2023-09-13T10:16:39.850Z,747.50
2023-09-13T10:19:12.942Z,698.42
2023-09-13T10:21:42.284Z,771.75
2023-09-13T10:24:11.986Z,728.35
2023-09-13T10:26:41.382Z,800.53
2023-09-13T10:29:14.513Z,757.70
2023-09-13T10:31:46.134Z,731.27
2023-09-13T10:34:25.301Z,743.05
2023-09-13T10:36:58.400Z,758.60
2023-09-13T10:39:31.973Z,756.78
2023-09-13T10:42:05.622Z,742.15
2023-09-13T10:44:37.253Z,797.75
2023-09-13T10:47:06.579Z,776.97
2023-09-13T10:49:38.219Z,767.00
2023-09-13T10:52:08.255Z,819.92
2023-09-13T10:54:37.944Z,841.17
2023-09-13T10:57:07.424Z,841.95
2023-09-13T11:03:22.302Z,879.78
2023-09-13T11:08:52.596Z,915.28
2023-09-13T11:48:57.220Z,885.83
2023-09-13T11:51:42.991Z,855.42
2023-09-13T11:54:19.006Z,881.83
2023-09-13T11:56:50.148Z,884.15
2023-09-13T11:59:20.899Z,885.10
2023-09-13T12:01:55.366Z,835.35
2023-09-13T12:07:02.775Z,855.97
2023-09-13T12:09:35.084Z,834.45
2023-09-13T12:12:07.128Z,841.88
2023-09-13T12:14:57.790Z,851.53
2023-09-13T12:17:39.116Z,838.90
2023-09-13T12:20:11.418Z,872.08
2023-09-13T12:22:41.664Z,960.47
2023-09-13T12:25:12.357Z,877.92
2023-09-13T12:27:41.114Z,877.17
2023-09-13T12:30:11.285Z,888.00
2023-09-13T12:32:39.877Z,882.45
2023-09-13T12:35:10.388Z,897.97
2023-09-13T12:37:38.837Z,967.25
2023-09-13T12:40:14.969Z,885.70
2023-09-13T12:42:43.910Z,875.13
2023-09-13T12:45:13.646Z,897.33
2023-09-13T12:47:42.236Z,873.35
2023-09-13T12:50:28.437Z,871.92
2023-09-13T12:53:03.370Z,899.58
2023-09-13T12:55:33.673Z,884.45
2023-09-13T12:58:08.312Z,895.40
2023-09-13T13:00:49.813Z,889.75
2023-09-13T13:03:18.789Z,875.88
2023-09-13T13:05:49.189Z,894.25
2023-09-13T13:08:17.876Z,894.50
2023-09-13T13:10:57.367Z,908.15
2023-09-13T13:13:32.961Z,902.10
2023-09-13T13:16:02.614Z,913.63
2023-09-13T13:18:33.691Z,902.70
2023-09-13T13:21:35.888Z,908.35
2023-09-13T13:24:07.356Z,894.53
2023-09-13T13:26:35.928Z,902.17
2023-09-13T13:29:11.122Z,920.38
2023-09-13T13:31:39.776Z,899.83
2023-09-13T13:34:08.452Z,877.90
2023-09-13T13:36:38.286Z,871.95
2023-09-13T13:39:07.736Z,943.50
2023-09-13T13:41:36.451Z,882.42
2023-09-13T13:44:05.185Z,871.15
2023-09-13T13:46:33.715Z,892.80
2023-09-13T13:49:03.948Z,900.45
2023-09-13T13:51:32.581Z,872.35
2023-09-13T13:54:03.741Z,929.05
2023-09-13T13:56:32.539Z,881.80
2023-09-13T13:59:01.773Z,879.15
2023-09-13T14:01:30.821Z,885.25
2023-09-13T14:03:59.447Z,877.83
2023-09-13T14:06:28.219Z,893.60
2023-09-13T14:08:56.748Z,879.28
2023-09-13T14:11:27.527Z,958.17
2023-09-13T14:13:56.095Z,861.95
2023-09-13T14:16:24.695Z,850.67
2023-09-13T14:18:53.329Z,862.35
2023-09-13T14:21:22.086Z,981.35
2023-09-13T14:23:51.688Z,893.60
2023-09-13T14:26:20.220Z,877.00
2023-09-13T14:28:50.081Z,900.35
2023-09-13T14:31:20.215Z,867.30
2023-09-13T14:33:50.962Z,858.85
2023-09-13T14:36:19.704Z,870.42
2023-09-13T14:38:48.253Z,863.42
2023-09-13T14:41:16.804Z,896.25
2023-09-13T14:43:45.370Z,874.25
2023-09-13T14:46:15.472Z,860.63
2023-09-13T14:48:44.479Z,881.17
2023-09-13T14:51:13.515Z,876.58
2023-09-13T14:53:41.997Z,861.28
2023-09-13T14:56:10.833Z,896.47
2023-09-13T14:58:39.709Z,902.47
2023-09-13T15:01:08.352Z,870.75
2023-09-13T15:03:38.403Z,867.35
2023-09-13T15:06:07.404Z,907.95
2023-09-13T15:08:35.913Z,877.20
2023-09-13T15:11:05.026Z,865.63
2023-09-13T15:13:33.706Z,932.10
2023-09-13T15:16:02.389Z,893.85
2023-09-13T15:18:35.534Z,864.88
2023-09-13T15:21:06.109Z,911.95
2023-09-13T15:23:34.940Z,894.80
2023-09-13T15:26:03.843Z,867.58
2023-09-13T15:28:32.434Z,853.38
2023-09-13T15:31:01.033Z,853.67
2023-09-13T15:33:29.948Z,893.83
2023-09-13T15:35:58.555Z,844.38
2023-09-13T15:38:28.542Z,892.20
2023-09-13T15:40:57.554Z,834.13
2023-09-13T15:43:26.029Z,794.95
2023-09-13T15:45:56.539Z,761.40
2023-09-13T15:48:25.381Z,793.75
2023-09-13T15:50:53.984Z,749.65
2023-09-13T15:53:22.765Z,804.97
2023-09-13T15:55:55.891Z,771.50
2023-09-13T15:58:24.405Z,849.85
2023-09-13T16:00:53.175Z,829.47
2023-09-13T16:03:21.977Z,871.80
2023-09-13T16:08:43.925Z,874.70
2023-09-13T16:15:04.293Z,855.95
2023-09-13T16:17:32.910Z,857.78
2023-09-13T16:20:01.674Z,837.05
2023-09-13T16:22:31.401Z,848.33
2023-09-13T16:25:04.489Z,844.10
2023-09-13T16:27:33.128Z,842.40
2023-09-13T16:30:31.741Z,854.97
2023-09-13T16:33:02.711Z,849.72
2023-09-13T17:03:02.950Z,771.88
2023-09-13T17:05:32.974Z,765.03
2023-09-13T17:08:01.514Z,748.78
2023-09-13T17:10:31.329Z,724.50
2023-09-13T17:13:00.138Z,646.42
2023-09-13T17:15:29.926Z,645.35
2023-09-13T17:17:59.921Z,665.10
2023-09-13T17:20:33.477Z,609.53
2023-09-13T17:23:04.110Z,582.53
2023-09-13T17:25:32.999Z,562.05
2023-09-13T17:28:01.994Z,571.40
2023-09-13T17:30:35.790Z,541.90
2023-09-13T17:33:07.046Z,546.47
2023-09-13T17:35:41.917Z,550.33
2023-09-13T17:38:14.732Z,526.97
2023-09-13T17:40:43.591Z,527.08
2023-09-13T17:43:12.395Z,545.47
2023-09-13T17:45:42.549Z,544.03
2023-09-13T17:48:12.501Z,564.03
2023-09-13T17:50:41.840Z,547.47
2023-09-13T17:53:11.719Z,635.90
2023-09-13T17:55:44.532Z,678.35
2023-09-13T17:58:13.101Z,667.90
2023-09-13T18:00:41.789Z,632.08
2023-09-13T18:03:11.990Z,721.85
2023-09-13T18:05:42.532Z,669.13
2023-09-13T18:08:15.374Z,708.00
2023-09-13T18:10:47.431Z,719.95
2023-09-13T18:13:18.052Z,682.83
2023-09-13T18:15:48.930Z,661.67
2023-09-13T18:18:17.871Z,667.60
2023-09-13T18:20:48.289Z,707.88
2023-09-13T18:23:20.734Z,741.15
2023-09-13T18:25:53.399Z,633.20
2023-09-13T18:28:22.083Z,624.00
2023-09-13T18:31:06.045Z,604.45
2023-09-13T18:33:39.250Z,655.90
2023-09-13T18:36:14.265Z,663.25
2023-09-13T18:38:43.998Z,702.97
2023-09-13T18:41:14.459Z,655.85
2023-09-13T18:43:46.343Z,622.85
2023-09-13T18:46:19.515Z,651.22
2023-09-13T18:48:53.011Z,669.37
2023-09-13T18:51:23.518Z,644.60
2023-09-13T18:53:56.961Z,658.45
2023-09-13T18:56:27.515Z,636.33
2023-09-13T18:58:56.584Z,598.28
2023-09-13T19:01:25.794Z,621.95
2023-09-13T19:03:55.815Z,579.28
2023-09-13T19:06:29.762Z,617.17
2023-09-13T19:08:58.605Z,673.70
2023-09-13T19:11:35.947Z,704.28
2023-09-13T19:14:07.617Z,698.25
2023-09-13T19:16:39.226Z,661.20
2023-09-13T19:19:10.021Z,662.20
2023-09-13T19:21:40.923Z,670.30
2023-09-13T19:24:13.312Z,631.33
2023-09-13T19:26:45.159Z,645.85
2023-09-13T19:29:16.842Z,700.85
2023-09-13T19:31:51.216Z,731.65
2023-09-13T19:34:21.924Z,685.67
2023-09-13T19:36:50.840Z,695.03
2023-09-13T19:39:22.671Z,688.60
2023-09-13T19:41:52.876Z,650.25
2023-09-13T19:44:25.415Z,655.08
2023-09-13T19:46:57.739Z,595.22
2023-09-13T19:49:28.647Z,562.00
2023-09-13T19:52:02.663Z,653.30
2023-09-13T19:54:33.193Z,562.20
2023-09-13T19:57:08.586Z,547.78
2023-09-13T19:59:39.138Z,571.20
2023-09-13T20:02:14.328Z,551.30
2023-09-13T20:04:43.361Z,547.47
2023-09-13T20:07:13.820Z,567.30
2023-09-13T20:09:47.212Z,548.03
2023-09-13T20:12:17.399Z,548.67
2023-09-13T20:14:46.113Z,547.63
2023-09-13T20:17:15.386Z,542.90
2023-09-13T20:19:43.946Z,547.65
2023-09-13T20:22:12.582Z,549.60
2023-09-13T20:24:41.092Z,549.47
2023-09-13T20:27:10.052Z,563.40
2023-09-13T20:29:39.858Z,559.85
2023-09-13T20:32:08.822Z,562.40
2023-09-13T20:34:37.627Z,528.67
2023-09-13T20:37:06.301Z,539.50
2023-09-13T20:39:35.148Z,560.65
2023-09-13T20:42:03.982Z,539.03
2023-09-13T20:44:32.465Z,558.83
2023-09-13T20:47:02.573Z,561.58
2023-09-13T20:49:31.822Z,549.13
2023-09-13T20:52:00.666Z,602.30
2023-09-13T20:54:29.545Z,554.25
2023-09-13T20:56:58.812Z,560.67
2023-09-13T20:59:27.302Z,562.30
2023-09-13T21:01:55.760Z,607.70
2023-09-13T21:04:25.858Z,594.75
2023-09-13T21:06:56.813Z,596.05
2023-09-13T21:09:25.484Z,606.30
2023-09-13T21:11:54.151Z,572.90
2023-09-13T21:14:22.946Z,619.80
2023-09-13T21:16:51.341Z,638.40
2023-09-13T21:19:20.941Z,638.05
2023-09-13T21:21:52.386Z,573.55
2023-09-13T21:24:21.196Z,586.47
2023-09-13T21:26:51.988Z,578.25
2023-09-13T21:29:20.593Z,579.25
2023-09-13T21:31:49.545Z,590.38
2023-09-13T21:34:18.024Z,579.65
2023-09-13T21:36:46.591Z,578.03
2023-09-13T21:39:16.664Z,570.70
2023-09-13T21:41:45.206Z,613.63
2023-09-13T21:44:13.667Z,565.90
2023-09-13T21:46:42.209Z,564.22
2023-09-13T21:49:11.278Z,565.13
2023-09-13T21:51:39.724Z,536.80
2023-09-13T21:54:08.661Z,480.30
2023-09-13T21:56:38.720Z,538.20
2023-09-13T21:59:07.663Z,376.58
2023-09-13T22:01:36.580Z,396.30
2023-09-13T22:04:05.796Z,343.50
2023-09-13T22:06:34.787Z,356.65
2023-09-13T22:09:03.538Z,452.52
2023-09-13T22:11:32.280Z,417.27
2023-09-13T22:14:02.522Z,348.33
2023-09-13T22:16:32.079Z,325.88
2023-09-13T22:19:00.814Z,300.33
2023-09-13T22:21:32.722Z,311.52
2023-09-13T22:24:01.529Z,354.15
2023-09-13T22:26:30.642Z,257.52
2023-09-13T22:28:59.745Z,261.85
2023-09-13T22:31:29.828Z,196.93
2023-09-13T22:33:59.031Z,209.57
2023-09-13T22:36:28.570Z,182.65
2023-09-13T22:39:07.665Z,139.30
2023-09-13T22:41:41.525Z,107.63
2023-09-13T22:44:10.521Z,120.15
2023-09-13T22:46:40.731Z,161.02
2023-09-13T22:49:11.329Z,148.70
2023-09-13T22:51:40.095Z,137.95
2023-09-13T22:54:08.983Z,105.50
2023-09-13T22:56:37.755Z,104.55
2023-09-13T22:59:06.639Z,87.25
2023-09-13T23:01:35.383Z,80.18
2023-09-13T23:04:06.140Z,62.95
2023-09-13T23:06:35.157Z,75.13
2023-09-13T23:09:05.672Z,77.47
2023-09-13T23:11:34.396Z,94.80
2023-09-13T23:14:02.993Z,55.08
2023-09-13T23:16:32.006Z,61.95
2023-09-13T23:19:00.827Z,40.90
2023-09-13T23:21:32.277Z,50.17
2023-09-13T23:24:01.423Z,52.70
2023-09-13T23:26:30.166Z,47.58
2023-09-13T23:29:03.816Z,48.95
2023-09-13T23:31:35.315Z,42.47
2023-09-13T23:34:06.153Z,55.85
2023-09-13T23:36:36.300Z,61.83
2023-09-13T23:39:06.196Z,55.47
2023-09-13T23:41:34.878Z,55.45
2023-09-13T23:44:04.128Z,44.95
2023-09-13T23:46:32.636Z,62.28
2023-09-13T23:49:01.322Z,56.67
2023-09-13T23:51:31.490Z,66.88
2023-09-13T23:54:03.139Z,104.88
2023-09-13T23:56:31.824Z,85.57
2023-09-13T23:59:05.745Z,82.53
